Search for airport 
image banner adimage banner adimage banner ad
image banner ad

02IA - Boone County Hospital

Located in Boone, United States

ICAO - 02IA, IATA -

Data provided by Airmate  

General information

Coordinates: N42°3'23" W93°52'35"
Elevation is 1160 feet MSL.
Magnetic variation is 03° East
View others Airports in Iowa

Operational data

Special qualification required
Current time UTC:
Current local time:
Weather at : KBNW - Boone Muni ( 2 km )
METAR: KBNW 150915Z AUTO 03004KT 10SM CLR 16/08 A3012 RMK AO2
View NOTAMs / SUP AIP / TFR affecting this airport [VIEW]
Communications frequencies: [VIEW]

Runways:

Airport contact information

Address: Boone United States

Satellite view of 02IA